Ebro, Minnesota
Current Conditions -  °F | °C
As of 4:55 PM on Thursday 18 Dec 2014 (Local Time) from KFSE Reporting Station
Overcast Overcast  
Wind Chill:   Ceiling: 7500
Heat Index: 18°   Visibility: 10mi
Dew Point: 16°   Wind: 6mph
Humidity: 93%   Direction: 140°SE
Pressure: 30.18"   Gusts: NA
Location:  47.3892°N, 95.4294°W
Report Text: KFSE 182255Z AUTO 14005KT 10SM OVC075 M08/M09 A3018 RMK AO2
Loading
Personal Weather Stations






























Interactive Weather Map New forecast layout! Learn more

10-Day Weather Forecast

Advertisements
Track Severe Weather on mobile